Berlin, Illinois
Current Conditions -  °F | °C
As of 12:52 AM on Thursday 23 Oct 2014 (Local Time) from KSPI Reporting Station
Clear Clear  
Wind Chill: 40°   Ceiling: Unl
Heat Index: 40°   Visibility: 10mi
Dew Point: 36°   Wind: 3mph
Humidity: 86%   Direction: 100°E
Pressure: 30.23"   Gusts: NA
Location:  39.7375°N, 89.904°W
Report Text: KSPI 230552Z AUTO 10003KT 10SM CLR 04/02 A3023 RMK AO2 SLP239 T00440022 10111 20033 401720017 58009
Loading
Personal Weather Stations






























Interactive Weather Map
Tropical Storm Tracking
New forecast layout! Learn more

10-Day Weather Forecast

Advertisements
Track Severe Weather on mobile